sensor_id;sensor_type;location;lat;lon;timestamp;temperature;humidity
9215;DHT22;4642;51.364;6.788;2023-03-20T00:02:23;9.10;99.90
9215;DHT22;4642;51.364;6.788;2023-03-20T00:04:49;9.00;99.90
9215;DHT22;4642;51.364;6.788;2023-03-20T00:07:15;9.00;99.90
9215;DHT22;4642;51.364;6.788;2023-03-20T00:09:41;9.00;99.90
9215;DHT22;4642;51.364;6.788;2023-03-20T00:12:12;9.00;99.90
9215;DHT22;4642;51.364;6.788;2023-03-20T00:14:39;9.00;99.90
9215;DHT22;4642;51.364;6.788;2023-03-20T00:17:16;9.00;99.90
9215;DHT22;4642;51.364;6.788;2023-03-20T00:19:44;9.00;99.90
9215;DHT22;4642;51.364;6.788;2023-03-20T00:22:10;8.90;99.90
9215;DHT22;4642;51.364;6.788;2023-03-20T00:24:36;8.90;99.90
9215;DHT22;4642;51.364;6.788;2023-03-20T00:27:02;8.90;99.90
9215;DHT22;4642;51.364;6.788;2023-03-20T00:29:30;8.90;99.90
9215;DHT22;4642;51.364;6.788;2023-03-20T00:31:58;8.80;99.90
9215;DHT22;4642;51.364;6.788;2023-03-20T00:34:26;8.80;99.90
9215;DHT22;4642;51.364;6.788;2023-03-20T00:36:54;8.80;99.90
9215;DHT22;4642;51.364;6.788;2023-03-20T00:39:20;8.80;99.90
9215;DHT22;4642;51.364;6.788;2023-03-20T00:41:50;8.80;99.90
9215;DHT22;4642;51.364;6.788;2023-03-20T00:47:23;8.80;99.90
9215;DHT22;4642;51.364;6.788;2023-03-20T00:49:50;8.80;99.90
9215;DHT22;4642;51.364;6.788;2023-03-20T00:52:18;8.80;99.90
9215;DHT22;4642;51.364;6.788;2023-03-20T00:54:44;8.80;99.90
9215;DHT22;4642;51.364;6.788;2023-03-20T00:57:20;8.80;99.90
9215;DHT22;4642;51.364;6.788;2023-03-20T01:00:00;8.80;99.90
9215;DHT22;4642;51.364;6.788;2023-03-20T01:02:28;8.80;99.90
9215;DHT22;4642;51.364;6.788;2023-03-20T01:04:54;8.80;99.90
9215;DHT22;4642;51.364;6.788;2023-03-20T01:07:19;8.80;99.90
9215;DHT22;4642;51.364;6.788;2023-03-20T01:09:45;8.80;99.90
9215;DHT22;4642;51.364;6.788;2023-03-20T01:12:12;8.80;99.90
9215;DHT22;4642;51.364;6.788;2023-03-20T01:14:39;8.80;99.90
9215;DHT22;4642;51.364;6.788;2023-03-20T01:17:05;8.80;99.90
9215;DHT22;4642;51.364;6.788;2023-03-20T01:19:33;8.80;99.90
9215;DHT22;4642;51.364;6.788;2023-03-20T01:21:58;8.80;99.90
9215;DHT22;4642;51.364;6.788;2023-03-20T01:24:24;8.80;99.90
9215;DHT22;4642;51.364;6.788;2023-03-20T01:26:49;8.80;99.90
9215;DHT22;4642;51.364;6.788;2023-03-20T01:29:25;8.80;99.90
9215;DHT22;4642;51.364;6.788;2023-03-20T01:31:55;8.80;99.90
9215;DHT22;4642;51.364;6.788;2023-03-20T01:34:21;8.80;99.90
9215;DHT22;4642;51.364;6.788;2023-03-20T01:36:52;8.70;99.90
9215;DHT22;4642;51.364;6.788;2023-03-20T01:39:19;8.70;99.90
9215;DHT22;4642;51.364;6.788;2023-03-20T01:41:46;8.70;99.90
9215;DHT22;4642;51.364;6.788;2023-03-20T01:44:19;8.70;99.90
9215;DHT22;4642;51.364;6.788;2023-03-20T01:46:46;8.70;99.90
9215;DHT22;4642;51.364;6.788;2023-03-20T01:51:44;8.60;99.90
9215;DHT22;4642;51.364;6.788;2023-03-20T01:54:12;8.60;99.90
9215;DHT22;4642;51.364;6.788;2023-03-20T01:56:47;8.70;99.90
9215;DHT22;4642;51.364;6.788;2023-03-20T01:59:37;8.60;99.90
9215;DHT22;4642;51.364;6.788;2023-03-20T02:02:06;8.50;99.90
9215;DHT22;4642;51.364;6.788;2023-03-20T02:04:36;8.50;99.90
9215;DHT22;4642;51.364;6.788;2023-03-20T02:07:04;8.50;99.90
9215;DHT22;4642;51.364;6.788;2023-03-20T02:09:30;8.40;99.90
9215;DHT22;4642;51.364;6.788;2023-03-20T02:11:57;8.40;99.90
9215;DHT22;4642;51.364;6.788;2023-03-20T02:14:23;8.40;99.90
9215;DHT22;4642;51.364;6.788;2023-03-20T02:16:48;8.30;99.90
9215;DHT22;4642;51.364;6.788;2023-03-20T02:19:28;8.30;99.90
9215;DHT22;4642;51.364;6.788;2023-03-20T02:34:20;8.20;99.90
9215;DHT22;4642;51.364;6.788;2023-03-20T02:42:54;8.20;99.90
9215;DHT22;4642;51.364;6.788;2023-03-20T02:45:30;8.20;99.90
9215;DHT22;4642;51.364;6.788;2023-03-20T02:48:16;8.10;99.90
9215;DHT22;4642;51.364;6.788;2023-03-20T02:51:06;8.10;99.90
9215;DHT22;4642;51.364;6.788;2023-03-20T02:53:42;8.10;99.90
9215;DHT22;4642;51.364;6.788;2023-03-20T02:56:14;8.10;99.90
9215;DHT22;4642;51.364;6.788;2023-03-20T02:59:08;8.10;99.90
9215;DHT22;4642;51.364;6.788;2023-03-20T03:01:40;8.10;99.90
9215;DHT22;4642;51.364;6.788;2023-03-20T03:04:12;8.10;99.90
9215;DHT22;4642;51.364;6.788;2023-03-20T03:06:42;8.20;99.90
9215;DHT22;4642;51.364;6.788;2023-03-20T03:11:55;8.10;99.90
9215;DHT22;4642;51.364;6.788;2023-03-20T03:14:48;8.20;99.90
9215;DHT22;4642;51.364;6.788;2023-03-20T03:17:17;8.20;99.90
9215;DHT22;4642;51.364;6.788;2023-03-20T03:19:47;8.20;99.90
9215;DHT22;4642;51.364;6.788;2023-03-20T03:22:15;8.20;99.90
9215;DHT22;4642;51.364;6.788;2023-03-20T03:24:47;8.20;99.90
9215;DHT22;4642;51.364;6.788;2023-03-20T03:27:31;8.20;99.90
9215;DHT22;4642;51.364;6.788;2023-03-20T03:30:02;8.30;99.90
9215;DHT22;4642;51.364;6.788;2023-03-20T03:32:34;8.20;99.90
9215;DHT22;4642;51.364;6.788;2023-03-20T03:35:04;8.20;99.90
9215;DHT22;4642;51.364;6.788;2023-03-20T03:37:57;8.20;99.90
9215;DHT22;4642;51.364;6.788;2023-03-20T03:40:45;8.20;99.90
9215;DHT22;4642;51.364;6.788;2023-03-20T03:43:20;8.20;99.90
9215;DHT22;4642;51.364;6.788;2023-03-20T03:45:55;8.20;99.90
9215;DHT22;4642;51.364;6.788;2023-03-20T03:48:30;8.10;99.90
9215;DHT22;4642;51.364;6.788;2023-03-20T03:51:00;8.10;99.90
9215;DHT22;4642;51.364;6.788;2023-03-20T03:53:37;8.10;99.90
9215;DHT22;4642;51.364;6.788;2023-03-20T03:56:07;8.10;99.90
9215;DHT22;4642;51.364;6.788;2023-03-20T03:58:39;8.10;99.90
9215;DHT22;4642;51.364;6.788;2023-03-20T04:01:08;8.10;99.90
9215;DHT22;4642;51.364;6.788;2023-03-20T04:03:39;8.10;99.90
9215;DHT22;4642;51.364;6.788;2023-03-20T04:06:09;8.10;99.90
9215;DHT22;4642;51.364;6.788;2023-03-20T04:08:39;8.10;99.90
9215;DHT22;4642;51.364;6.788;2023-03-20T04:11:05;8.10;99.90
9215;DHT22;4642;51.364;6.788;2023-03-20T04:13:30;8.10;99.90
9215;DHT22;4642;51.364;6.788;2023-03-20T04:15:56;8.10;99.90
9215;DHT22;4642;51.364;6.788;2023-03-20T04:18:21;8.10;99.90
9215;DHT22;4642;51.364;6.788;2023-03-20T04:20:47;8.10;99.90
9215;DHT22;4642;51.364;6.788;2023-03-20T04:23:13;8.10;99.90
9215;DHT22;4642;51.364;6.788;2023-03-20T04:25:39;8.00;99.90
9215;DHT22;4642;51.364;6.788;2023-03-20T04:28:05;8.00;99.90
9215;DHT22;4642;51.364;6.788;2023-03-20T04:30:31;8.10;99.90
9215;DHT22;4642;51.364;6.788;2023-03-20T04:32:56;8.10;99.90
9215;DHT22;4642;51.364;6.788;2023-03-20T04:35:22;8.00;99.90
9215;DHT22;4642;51.364;6.788;2023-03-20T04:37:48;8.00;99.90
9215;DHT22;4642;51.364;6.788;2023-03-20T04:40:14;8.00;99.90
9215;DHT22;4642;51.364;6.788;2023-03-20T04:42:40;8.00;99.90
9215;DHT22;4642;51.364;6.788;2023-03-20T04:45:06;7.90;99.90
9215;DHT22;4642;51.364;6.788;2023-03-20T04:47:31;7.90;99.90
9215;DHT22;4642;51.364;6.788;2023-03-20T04:49:57;7.90;99.90
9215;DHT22;4642;51.364;6.788;2023-03-20T04:52:22;7.90;99.90
9215;DHT22;4642;51.364;6.788;2023-03-20T04:54:48;7.90;99.90
9215;DHT22;4642;51.364;6.788;2023-03-20T04:57:13;7.80;99.90
9215;DHT22;4642;51.364;6.788;2023-03-20T04:59:40;7.80;99.90
9215;DHT22;4642;51.364;6.788;2023-03-20T05:02:06;7.80;99.90
9215;DHT22;4642;51.364;6.788;2023-03-20T05:04:31;7.80;99.90
9215;DHT22;4642;51.364;6.788;2023-03-20T05:06:57;7.70;99.90
9215;DHT22;4642;51.364;6.788;2023-03-20T05:09:22;7.70;99.90
9215;DHT22;4642;51.364;6.788;2023-03-20T05:11:48;7.70;99.90
9215;DHT22;4642;51.364;6.788;2023-03-20T05:14:13;7.60;99.90
9215;DHT22;4642;51.364;6.788;2023-03-20T05:16:39;7.60;99.90
9215;DHT22;4642;51.364;6.788;2023-03-20T05:19:05;7.60;99.90
9215;DHT22;4642;51.364;6.788;2023-03-20T05:21:30;7.50;99.90
9215;DHT22;4642;51.364;6.788;2023-03-20T05:23:56;7.50;99.90
9215;DHT22;4642;51.364;6.788;2023-03-20T05:26:22;7.50;99.90
9215;DHT22;4642;51.364;6.788;2023-03-20T05:28:47;7.50;99.90
9215;DHT22;4642;51.364;6.788;2023-03-20T05:31:13;7.50;99.90
9215;DHT22;4642;51.364;6.788;2023-03-20T05:33:38;7.50;99.90
9215;DHT22;4642;51.364;6.788;2023-03-20T05:36:04;7.50;99.90
9215;DHT22;4642;51.364;6.788;2023-03-20T05:38:30;7.50;99.90
9215;DHT22;4642;51.364;6.788;2023-03-20T05:40:57;7.40;99.90
9215;DHT22;4642;51.364;6.788;2023-03-20T05:43:23;7.40;99.90
9215;DHT22;4642;51.364;6.788;2023-03-20T05:45:49;7.40;99.90
9215;DHT22;4642;51.364;6.788;2023-03-20T05:48:14;7.40;99.90
9215;DHT22;4642;51.364;6.788;2023-03-20T05:50:40;7.40;99.90
9215;DHT22;4642;51.364;6.788;2023-03-20T05:53:06;7.40;99.90
9215;DHT22;4642;51.364;6.788;2023-03-20T05:55:31;7.40;99.90
9215;DHT22;4642;51.364;6.788;2023-03-20T05:57:57;7.40;99.90
9215;DHT22;4642;51.364;6.788;2023-03-20T06:00:23;7.40;99.90
9215;DHT22;4642;51.364;6.788;2023-03-20T06:02:48;7.40;99.90
9215;DHT22;4642;51.364;6.788;2023-03-20T06:05:14;7.40;99.90
9215;DHT22;4642;51.364;6.788;2023-03-20T06:07:40;7.40;99.90
9215;DHT22;4642;51.364;6.788;2023-03-20T06:10:06;7.40;99.90
9215;DHT22;4642;51.364;6.788;2023-03-20T06:12:32;7.40;99.90
9215;DHT22;4642;51.364;6.788;2023-03-20T06:14:57;7.40;99.90
9215;DHT22;4642;51.364;6.788;2023-03-20T06:17:23;7.30;99.90
9215;DHT22;4642;51.364;6.788;2023-03-20T06:19:49;7.40;99.90
9215;DHT22;4642;51.364;6.788;2023-03-20T06:22:14;7.40;99.90
9215;DHT22;4642;51.364;6.788;2023-03-20T06:24:40;7.40;99.90
9215;DHT22;4642;51.364;6.788;2023-03-20T06:27:05;7.40;99.90
9215;DHT22;4642;51.364;6.788;2023-03-20T06:29:31;7.40;99.90
9215;DHT22;4642;51.364;6.788;2023-03-20T06:31:57;7.40;99.90
9215;DHT22;4642;51.364;6.788;2023-03-20T06:34:22;7.40;99.90
9215;DHT22;4642;51.364;6.788;2023-03-20T06:36:48;7.50;99.90
9215;DHT22;4642;51.364;6.788;2023-03-20T06:39:13;7.40;99.90
9215;DHT22;4642;51.364;6.788;2023-03-20T06:41:39;7.50;99.90
9215;DHT22;4642;51.364;6.788;2023-03-20T06:44:05;7.50;99.90
9215;DHT22;4642;51.364;6.788;2023-03-20T06:46:31;7.50;99.90
9215;DHT22;4642;51.364;6.788;2023-03-20T06:48:56;7.50;99.90
9215;DHT22;4642;51.364;6.788;2023-03-20T06:51:22;7.50;99.90
9215;DHT22;4642;51.364;6.788;2023-03-20T06:53:47;7.50;99.90
9215;DHT22;4642;51.364;6.788;2023-03-20T06:56:13;7.50;99.90
9215;DHT22;4642;51.364;6.788;2023-03-20T06:58:39;7.60;99.90
9215;DHT22;4642;51.364;6.788;2023-03-20T07:01:13;7.60;99.90
9215;DHT22;4642;51.364;6.788;2023-03-20T07:03:40;7.60;99.90
9215;DHT22;4642;51.364;6.788;2023-03-20T07:06:05;7.60;99.90
9215;DHT22;4642;51.364;6.788;2023-03-20T07:08:32;7.70;99.90
9215;DHT22;4642;51.364;6.788;2023-03-20T07:10:57;7.70;99.90
9215;DHT22;4642;51.364;6.788;2023-03-20T07:13:23;7.80;99.90
9215;DHT22;4642;51.364;6.788;2023-03-20T07:15:49;7.70;99.90
9215;DHT22;4642;51.364;6.788;2023-03-20T07:18:14;7.70;99.90
9215;DHT22;4642;51.364;6.788;2023-03-20T07:20:40;7.80;99.90
9215;DHT22;4642;51.364;6.788;2023-03-20T07:23:06;7.80;99.90
9215;DHT22;4642;51.364;6.788;2023-03-20T07:25:31;7.80;99.90
9215;DHT22;4642;51.364;6.788;2023-03-20T07:27:57;7.80;99.90
9215;DHT22;4642;51.364;6.788;2023-03-20T07:30:23;7.80;99.90
9215;DHT22;4642;51.364;6.788;2023-03-20T07:32:49;7.80;99.90
9215;DHT22;4642;51.364;6.788;2023-03-20T07:35:14;7.90;99.90
9215;DHT22;4642;51.364;6.788;2023-03-20T07:37:40;7.90;99.90
9215;DHT22;4642;51.364;6.788;2023-03-20T07:40:06;8.00;99.90
9215;DHT22;4642;51.364;6.788;2023-03-20T07:42:32;8.00;99.90
9215;DHT22;4642;51.364;6.788;2023-03-20T07:44:58;8.00;99.90
9215;DHT22;4642;51.364;6.788;2023-03-20T07:47:23;8.00;99.90
9215;DHT22;4642;51.364;6.788;2023-03-20T07:49:49;8.10;99.90
9215;DHT22;4642;51.364;6.788;2023-03-20T07:52:15;8.10;99.90
9215;DHT22;4642;51.364;6.788;2023-03-20T07:54:41;8.10;99.90
9215;DHT22;4642;51.364;6.788;2023-03-20T07:57:07;8.20;99.90
9215;DHT22;4642;51.364;6.788;2023-03-20T07:59:32;8.10;99.90
9215;DHT22;4642;51.364;6.788;2023-03-20T08:01:58;8.20;99.90
9215;DHT22;4642;51.364;6.788;2023-03-20T08:04:23;8.20;99.90
9215;DHT22;4642;51.364;6.788;2023-03-20T08:06:50;8.30;99.90
9215;DHT22;4642;51.364;6.788;2023-03-20T08:09:16;8.30;99.90
9215;DHT22;4642;51.364;6.788;2023-03-20T08:11:42;8.30;99.90
9215;DHT22;4642;51.364;6.788;2023-03-20T08:14:08;8.40;99.90
9215;DHT22;4642;51.364;6.788;2023-03-20T08:16:34;8.50;99.90
9215;DHT22;4642;51.364;6.788;2023-03-20T08:19:00;8.50;99.90
9215;DHT22;4642;51.364;6.788;2023-03-20T08:21:30;8.60;99.90
9215;DHT22;4642;51.364;6.788;2023-03-20T08:23:56;8.70;99.90
9215;DHT22;4642;51.364;6.788;2023-03-20T08:26:22;8.70;99.90
9215;DHT22;4642;51.364;6.788;2023-03-20T08:28:48;8.70;99.90
9215;DHT22;4642;51.364;6.788;2023-03-20T08:31:15;8.80;99.90
9215;DHT22;4642;51.364;6.788;2023-03-20T08:33:46;8.90;99.90
9215;DHT22;4642;51.364;6.788;2023-03-20T08:36:13;8.90;99.90
9215;DHT22;4642;51.364;6.788;2023-03-20T08:38:44;8.90;99.90
9215;DHT22;4642;51.364;6.788;2023-03-20T08:41:09;9.00;99.90
9215;DHT22;4642;51.364;6.788;2023-03-20T08:43:35;9.10;99.90
9215;DHT22;4642;51.364;6.788;2023-03-20T08:46:01;9.10;99.90
9215;DHT22;4642;51.364;6.788;2023-03-20T08:48:26;9.10;99.90
9215;DHT22;4642;51.364;6.788;2023-03-20T08:50:52;9.10;99.90
9215;DHT22;4642;51.364;6.788;2023-03-20T08:53:18;9.10;99.90
9215;DHT22;4642;51.364;6.788;2023-03-20T08:55:50;9.10;99.90
9215;DHT22;4642;51.364;6.788;2023-03-20T08:58:17;9.10;99.90
9215;DHT22;4642;51.364;6.788;2023-03-20T09:00:43;9.00;99.90
9215;DHT22;4642;51.364;6.788;2023-03-20T09:03:12;9.80;99.90
9215;DHT22;4642;51.364;6.788;2023-03-20T09:05:39;9.10;99.90
9215;DHT22;4642;51.364;6.788;2023-03-20T09:08:05;9.00;99.90
9215;DHT22;4642;51.364;6.788;2023-03-20T09:10:31;9.10;99.90
9215;DHT22;4642;51.364;6.788;2023-03-20T09:12:58;9.10;99.90
9215;DHT22;4642;51.364;6.788;2023-03-20T09:15:24;9.20;99.90
9215;DHT22;4642;51.364;6.788;2023-03-20T09:17:50;9.20;99.90
9215;DHT22;4642;51.364;6.788;2023-03-20T09:20:15;9.20;99.90
9215;DHT22;4642;51.364;6.788;2023-03-20T09:22:41;9.30;99.90
9215;DHT22;4642;51.364;6.788;2023-03-20T09:25:08;9.30;99.90
9215;DHT22;4642;51.364;6.788;2023-03-20T09:27:33;9.30;99.90
9215;DHT22;4642;51.364;6.788;2023-03-20T09:29:59;9.30;99.90
9215;DHT22;4642;51.364;6.788;2023-03-20T09:32:25;9.30;99.90
9215;DHT22;4642;51.364;6.788;2023-03-20T09:34:50;9.30;99.90
9215;DHT22;4642;51.364;6.788;2023-03-20T09:37:16;9.30;99.90
9215;DHT22;4642;51.364;6.788;2023-03-20T09:39:41;9.30;99.90
9215;DHT22;4642;51.364;6.788;2023-03-20T09:45:17;9.40;99.90
9215;DHT22;4642;51.364;6.788;2023-03-20T09:47:53;9.40;99.90
9215;DHT22;4642;51.364;6.788;2023-03-20T09:50:35;9.40;99.90
9215;DHT22;4642;51.364;6.788;2023-03-20T09:53:12;9.50;99.90
9215;DHT22;4642;51.364;6.788;2023-03-20T09:55:40;9.50;99.90
9215;DHT22;4642;51.364;6.788;2023-03-20T09:58:14;9.50;99.90
9215;DHT22;4642;51.364;6.788;2023-03-20T10:00:44;9.60;99.90
9215;DHT22;4642;51.364;6.788;2023-03-20T10:03:58;9.60;99.90
9215;DHT22;4642;51.364;6.788;2023-03-20T10:06:14;9.50;99.90
9215;DHT22;4642;51.364;6.788;2023-03-20T10:08:41;9.50;99.90
9215;DHT22;4642;51.364;6.788;2023-03-20T10:13:58;9.60;99.90
9215;DHT22;4642;51.364;6.788;2023-03-20T10:19:22;9.80;99.90
9215;DHT22;4642;51.364;6.788;2023-03-20T10:21:56;9.70;99.90
9215;DHT22;4642;51.364;6.788;2023-03-20T10:24:41;9.60;99.90
9215;DHT22;4642;51.364;6.788;2023-03-20T10:27:24;9.70;99.90
9215;DHT22;4642;51.364;6.788;2023-03-20T10:35:25;9.70;99.90
9215;DHT22;4642;51.364;6.788;2023-03-20T10:38:01;9.70;99.90
9215;DHT22;4642;51.364;6.788;2023-03-20T10:40:31;9.60;99.90
9215;DHT22;4642;51.364;6.788;2023-03-20T10:43:03;9.60;99.90
9215;DHT22;4642;51.364;6.788;2023-03-20T10:45:45;9.70;99.90
9215;DHT22;4642;51.364;6.788;2023-03-20T10:48:28;9.80;99.90
9215;DHT22;4642;51.364;6.788;2023-03-20T10:50:58;9.80;99.90
9215;DHT22;4642;51.364;6.788;2023-03-20T10:53:48;9.80;99.90
9215;DHT22;4642;51.364;6.788;2023-03-20T10:56:38;9.80;99.90
9215;DHT22;4642;51.364;6.788;2023-03-20T10:59:07;9.80;99.90
9215;DHT22;4642;51.364;6.788;2023-03-20T11:01:34;9.80;99.90
9215;DHT22;4642;51.364;6.788;2023-03-20T11:04:00;9.90;99.90
9215;DHT22;4642;51.364;6.788;2023-03-20T11:06:30;9.80;99.90
9215;DHT22;4642;51.364;6.788;2023-03-20T11:09:25;9.70;99.90
9215;DHT22;4642;51.364;6.788;2023-03-20T11:11:56;9.70;99.90
9215;DHT22;4642;51.364;6.788;2023-03-20T11:14:24;9.70;99.90
9215;DHT22;4642;51.364;6.788;2023-03-20T11:16:53;9.80;99.90
9215;DHT22;4642;51.364;6.788;2023-03-20T11:19:21;9.70;99.90
9215;DHT22;4642;51.364;6.788;2023-03-20T11:21:52;9.80;99.90
9215;DHT22;4642;51.364;6.788;2023-03-20T11:26:50;9.80;99.90
9215;DHT22;4642;51.364;6.788;2023-03-20T11:29:30;9.80;99.90
9215;DHT22;4642;51.364;6.788;2023-03-20T11:32:10;9.80;99.90
9215;DHT22;4642;51.364;6.788;2023-03-20T11:34:39;9.90;99.90
9215;DHT22;4642;51.364;6.788;2023-03-20T11:37:24;9.80;99.90
9215;DHT22;4642;51.364;6.788;2023-03-20T11:40:13;9.90;99.90
9215;DHT22;4642;51.364;6.788;2023-03-20T11:42:39;10.00;99.90
9215;DHT22;4642;51.364;6.788;2023-03-20T11:45:16;10.00;99.90
9215;DHT22;4642;51.364;6.788;2023-03-20T11:47:42;10.10;99.90
9215;DHT22;4642;51.364;6.788;2023-03-20T11:50:29;10.00;99.90
9215;DHT22;4642;51.364;6.788;2023-03-20T11:52:56;9.90;99.90
9215;DHT22;4642;51.364;6.788;2023-03-20T11:55:32;9.80;99.90
9215;DHT22;4642;51.364;6.788;2023-03-20T11:58:00;9.80;99.90
9215;DHT22;4642;51.364;6.788;2023-03-20T12:00:36;9.80;99.90
9215;DHT22;4642;51.364;6.788;2023-03-20T12:03:02;9.60;99.90
9215;DHT22;4642;51.364;6.788;2023-03-20T12:05:33;9.40;99.90
9215;DHT22;4642;51.364;6.788;2023-03-20T12:08:24;9.50;99.90
9215;DHT22;4642;51.364;6.788;2023-03-20T12:10:56;9.40;99.90
9215;DHT22;4642;51.364;6.788;2023-03-20T12:13:28;9.40;99.90
9215;DHT22;4642;51.364;6.788;2023-03-20T12:16:01;9.30;99.90
9215;DHT22;4642;51.364;6.788;2023-03-20T12:18:39;9.40;99.90
9215;DHT22;4642;51.364;6.788;2023-03-20T12:21:10;9.50;99.90
9215;DHT22;4642;51.364;6.788;2023-03-20T12:23:57;9.50;99.90
9215;DHT22;4642;51.364;6.788;2023-03-20T12:26:32;9.30;99.90
9215;DHT22;4642;51.364;6.788;2023-03-20T12:34:50;9.30;99.90
9215;DHT22;4642;51.364;6.788;2023-03-20T12:37:17;9.40;99.90
9215;DHT22;4642;51.364;6.788;2023-03-20T12:40:03;9.50;99.90
9215;DHT22;4642;51.364;6.788;2023-03-20T12:44:55;9.50;99.90
9215;DHT22;4642;51.364;6.788;2023-03-20T12:50:40;9.60;99.90
9215;DHT22;4642;51.364;6.788;2023-03-20T12:58:46;9.60;99.90
9215;DHT22;4642;51.364;6.788;2023-03-20T13:01:34;9.70;99.90
9215;DHT22;4642;51.364;6.788;2023-03-20T13:07:20;9.70;99.90
9215;DHT22;4642;51.364;6.788;2023-03-20T13:10:00;9.80;99.90
9215;DHT22;4642;51.364;6.788;2023-03-20T13:12:36;9.60;99.90
9215;DHT22;4642;51.364;6.788;2023-03-20T13:20:51;9.70;99.90
9215;DHT22;4642;51.364;6.788;2023-03-20T13:23:25;9.80;99.90
9215;DHT22;4642;51.364;6.788;2023-03-20T13:33:58;10.10;99.90
9215;DHT22;4642;51.364;6.788;2023-03-20T13:39:17;10.20;99.90
9215;DHT22;4642;51.364;6.788;2023-03-20T13:41:46;10.30;99.90
9215;DHT22;4642;51.364;6.788;2023-03-20T13:44:15;10.30;99.90
9215;DHT22;4642;51.364;6.788;2023-03-20T13:46:48;10.60;99.90
9215;DHT22;4642;51.364;6.788;2023-03-20T13:49:36;10.50;99.90
9215;DHT22;4642;51.364;6.788;2023-03-20T13:52:20;10.50;99.90
9215;DHT22;4642;51.364;6.788;2023-03-20T13:55:21;10.60;99.90
9215;DHT22;4642;51.364;6.788;2023-03-20T14:03:30;10.50;99.90
9215;DHT22;4642;51.364;6.788;2023-03-20T14:05:56;10.50;99.90
9215;DHT22;4642;51.364;6.788;2023-03-20T14:14:31;10.20;99.90
9215;DHT22;4642;51.364;6.788;2023-03-20T14:17:18;10.30;99.90
9215;DHT22;4642;51.364;6.788;2023-03-20T14:19:45;10.30;99.90
9215;DHT22;4642;51.364;6.788;2023-03-20T14:22:17;10.30;99.90
9215;DHT22;4642;51.364;6.788;2023-03-20T14:24:58;10.20;99.90
9215;DHT22;4642;51.364;6.788;2023-03-20T14:27:27;10.20;99.90
9215;DHT22;4642;51.364;6.788;2023-03-20T14:29:53;10.30;99.90
9215;DHT22;4642;51.364;6.788;2023-03-20T14:34:48;10.30;99.90
9215;DHT22;4642;51.364;6.788;2023-03-20T14:37:33;10.40;99.90
9215;DHT22;4642;51.364;6.788;2023-03-20T14:40:18;10.50;99.90
9215;DHT22;4642;51.364;6.788;2023-03-20T14:43:00;10.50;99.90
9215;DHT22;4642;51.364;6.788;2023-03-20T14:45:42;10.50;99.90
9215;DHT22;4642;51.364;6.788;2023-03-20T14:48:24;10.50;99.90
9215;DHT22;4642;51.364;6.788;2023-03-20T14:51:21;10.50;99.90
9215;DHT22;4642;51.364;6.788;2023-03-20T14:53:56;10.60;99.90
9215;DHT22;4642;51.364;6.788;2023-03-20T14:56:30;10.70;99.90
9215;DHT22;4642;51.364;6.788;2023-03-20T14:59:01;10.80;99.90
9215;DHT22;4642;51.364;6.788;2023-03-20T15:04:13;10.80;99.90
9215;DHT22;4642;51.364;6.788;2023-03-20T15:06:44;10.90;99.90
9215;DHT22;4642;51.364;6.788;2023-03-20T15:09:11;10.80;99.90
9215;DHT22;4642;51.364;6.788;2023-03-20T15:11:38;10.80;99.90
9215;DHT22;4642;51.364;6.788;2023-03-20T15:14:07;10.80;99.90
9215;DHT22;4642;51.364;6.788;2023-03-20T15:16:35;10.80;99.90
9215;DHT22;4642;51.364;6.788;2023-03-20T15:19:05;10.80;99.90
9215;DHT22;4642;51.364;6.788;2023-03-20T15:21:36;10.80;99.90
9215;DHT22;4642;51.364;6.788;2023-03-20T15:24:03;10.70;99.90
9215;DHT22;4642;51.364;6.788;2023-03-20T15:26:31;10.70;99.90
9215;DHT22;4642;51.364;6.788;2023-03-20T15:29:09;10.70;99.90
9215;DHT22;4642;51.364;6.788;2023-03-20T15:31:38;10.70;99.90
9215;DHT22;4642;51.364;6.788;2023-03-20T15:34:08;10.70;99.90
9215;DHT22;4642;51.364;6.788;2023-03-20T15:36:38;10.70;99.90
9215;DHT22;4642;51.364;6.788;2023-03-20T15:39:19;10.60;99.90
9215;DHT22;4642;51.364;6.788;2023-03-20T15:42:02;10.60;99.90
9215;DHT22;4642;51.364;6.788;2023-03-20T15:44:36;10.60;99.90
9215;DHT22;4642;51.364;6.788;2023-03-20T15:47:20;10.60;99.90
9215;DHT22;4642;51.364;6.788;2023-03-20T15:49:55;10.70;99.90
9215;DHT22;4642;51.364;6.788;2023-03-20T15:54:47;10.50;99.90
9215;DHT22;4642;51.364;6.788;2023-03-20T15:57:19;10.50;99.90
9215;DHT22;4642;51.364;6.788;2023-03-20T15:59:45;10.50;99.90
9215;DHT22;4642;51.364;6.788;2023-03-20T16:02:12;10.40;99.90
9215;DHT22;4642;51.364;6.788;2023-03-20T16:04:45;10.40;99.90
9215;DHT22;4642;51.364;6.788;2023-03-20T16:07:20;10.40;99.90
9215;DHT22;4642;51.364;6.788;2023-03-20T16:09:46;10.30;99.90
9215;DHT22;4642;51.364;6.788;2023-03-20T16:12:15;10.30;99.90
9215;DHT22;4642;51.364;6.788;2023-03-20T16:14:42;10.20;99.90
9215;DHT22;4642;51.364;6.788;2023-03-20T16:17:11;10.20;99.90
9215;DHT22;4642;51.364;6.788;2023-03-20T16:19:37;10.10;99.90
9215;DHT22;4642;51.364;6.788;2023-03-20T16:22:31;10.00;99.90
9215;DHT22;4642;51.364;6.788;2023-03-20T16:24:59;10.00;99.90
9215;DHT22;4642;51.364;6.788;2023-03-20T16:27:28;9.90;99.90
9215;DHT22;4642;51.364;6.788;2023-03-20T16:29:55;10.10;99.90
9215;DHT22;4642;51.364;6.788;2023-03-20T16:32:37;9.80;99.90
9215;DHT22;4642;51.364;6.788;2023-03-20T16:35:17;9.80;99.90
9215;DHT22;4642;51.364;6.788;2023-03-20T16:38:12;9.70;99.90
9215;DHT22;4642;51.364;6.788;2023-03-20T16:40:38;9.80;99.90
9215;DHT22;4642;51.364;6.788;2023-03-20T16:43:16;9.70;99.90
9215;DHT22;4642;51.364;6.788;2023-03-20T16:45:51;9.70;99.90
9215;DHT22;4642;51.364;6.788;2023-03-20T16:48:25;9.70;99.90
9215;DHT22;4642;51.364;6.788;2023-03-20T16:51:19;9.70;99.90
9215;DHT22;4642;51.364;6.788;2023-03-20T16:53:48;9.70;99.90
9215;DHT22;4642;51.364;6.788;2023-03-20T16:58:54;9.70;99.90
9215;DHT22;4642;51.364;6.788;2023-03-20T17:01:22;9.60;99.90
9215;DHT22;4642;51.364;6.788;2023-03-20T17:03:57;9.60;99.90
9215;DHT22;4642;51.364;6.788;2023-03-20T17:09:33;9.60;99.90
9215;DHT22;4642;51.364;6.788;2023-03-20T17:11:46;9.60;99.90
9215;DHT22;4642;51.364;6.788;2023-03-20T17:14:12;9.60;99.90
9215;DHT22;4642;51.364;6.788;2023-03-20T17:16:38;9.60;99.90
9215;DHT22;4642;51.364;6.788;2023-03-20T17:19:09;9.60;99.90
9215;DHT22;4642;51.364;6.788;2023-03-20T17:21:35;9.60;99.90
9215;DHT22;4642;51.364;6.788;2023-03-20T17:24:01;9.60;99.90
9215;DHT22;4642;51.364;6.788;2023-03-20T17:26:26;9.60;99.90
9215;DHT22;4642;51.364;6.788;2023-03-20T17:28:53;9.60;99.90
9215;DHT22;4642;51.364;6.788;2023-03-20T17:31:18;9.60;99.90
9215;DHT22;4642;51.364;6.788;2023-03-20T17:33:45;9.60;99.90
9215;DHT22;4642;51.364;6.788;2023-03-20T17:36:16;9.60;99.90
9215;DHT22;4642;51.364;6.788;2023-03-20T17:38:43;9.60;99.90
9215;DHT22;4642;51.364;6.788;2023-03-20T17:41:13;9.60;99.90
9215;DHT22;4642;51.364;6.788;2023-03-20T17:43:39;9.60;99.90
9215;DHT22;4642;51.364;6.788;2023-03-20T17:46:05;9.60;99.90
9215;DHT22;4642;51.364;6.788;2023-03-20T17:48:30;9.60;99.90
9215;DHT22;4642;51.364;6.788;2023-03-20T17:50:56;9.60;99.90
9215;DHT22;4642;51.364;6.788;2023-03-20T17:53:24;9.60;99.90
9215;DHT22;4642;51.364;6.788;2023-03-20T17:55:51;9.60;99.90
9215;DHT22;4642;51.364;6.788;2023-03-20T17:58:18;9.60;99.90
9215;DHT22;4642;51.364;6.788;2023-03-20T18:00:46;9.60;99.90
9215;DHT22;4642;51.364;6.788;2023-03-20T18:03:12;9.60;99.90
9215;DHT22;4642;51.364;6.788;2023-03-20T18:05:40;9.60;99.90
9215;DHT22;4642;51.364;6.788;2023-03-20T18:08:13;9.60;99.90
9215;DHT22;4642;51.364;6.788;2023-03-20T18:10:39;9.60;99.90
9215;DHT22;4642;51.364;6.788;2023-03-20T18:13:05;9.60;99.90
9215;DHT22;4642;51.364;6.788;2023-03-20T18:15:30;9.60;99.90
9215;DHT22;4642;51.364;6.788;2023-03-20T18:17:56;9.60;99.90
9215;DHT22;4642;51.364;6.788;2023-03-20T18:20:30;9.60;99.90